sensor_id;sensor_type;location;lat;lon;timestamp;P1;durP1;ratioP1;P2;durP2;ratioP2
21833;SDS011;11079;51.092;3.458;2023-06-22T00:01:27;9.77;;;6.85;;
21833;SDS011;11079;51.092;3.458;2023-06-22T00:03:53;9.73;;;6.80;;
21833;SDS011;11079;51.092;3.458;2023-06-22T00:06:18;9.80;;;6.85;;
21833;SDS011;11079;51.092;3.458;2023-06-22T00:08:44;9.60;;;6.95;;
21833;SDS011;11079;51.092;3.458;2023-06-22T00:11:10;13.48;;;6.65;;
21833;SDS011;11079;51.092;3.458;2023-06-22T00:13:36;12.35;;;7.25;;
21833;SDS011;11079;51.092;3.458;2023-06-22T00:16:02;9.85;;;6.38;;
21833;SDS011;11079;51.092;3.458;2023-06-22T00:18:28;12.00;;;7.05;;
21833;SDS011;11079;51.092;3.458;2023-06-22T00:20:55;10.93;;;6.32;;
21833;SDS011;11079;51.092;3.458;2023-06-22T00:23:24;10.45;;;7.03;;
21833;SDS011;11079;51.092;3.458;2023-06-22T00:25:50;10.48;;;7.70;;
21833;SDS011;11079;51.092;3.458;2023-06-22T00:28:15;12.48;;;6.60;;
21833;SDS011;11079;51.092;3.458;2023-06-22T00:30:41;9.13;;;6.47;;
21833;SDS011;11079;51.092;3.458;2023-06-22T00:33:07;10.07;;;7.15;;
21833;SDS011;11079;51.092;3.458;2023-06-22T00:35:32;13.57;;;7.57;;
21833;SDS011;11079;51.092;3.458;2023-06-22T00:37:59;10.45;;;6.72;;
21833;SDS011;11079;51.092;3.458;2023-06-22T00:40:26;10.85;;;7.25;;
21833;SDS011;11079;51.092;3.458;2023-06-22T00:42:53;13.35;;;8.07;;
21833;SDS011;11079;51.092;3.458;2023-06-22T00:45:19;11.73;;;7.43;;
21833;SDS011;11079;51.092;3.458;2023-06-22T00:47:44;10.65;;;7.50;;
21833;SDS011;11079;51.092;3.458;2023-06-22T00:50:10;13.80;;;7.93;;
21833;SDS011;11079;51.092;3.458;2023-06-22T00:52:43;10.23;;;7.15;;
21833;SDS011;11079;51.092;3.458;2023-06-22T00:55:11;13.65;;;7.63;;
21833;SDS011;11079;51.092;3.458;2023-06-22T00:57:37;9.32;;;7.15;;
21833;SDS011;11079;51.092;3.458;2023-06-22T01:00:03;11.30;;;7.75;;
21833;SDS011;11079;51.092;3.458;2023-06-22T01:02:32;13.00;;;8.30;;
21833;SDS011;11079;51.092;3.458;2023-06-22T01:04:59;10.95;;;7.47;;
21833;SDS011;11079;51.092;3.458;2023-06-22T01:07:27;13.50;;;8.05;;
21833;SDS011;11079;51.092;3.458;2023-06-22T01:10:10;11.57;;;7.72;;
21833;SDS011;11079;51.092;3.458;2023-06-22T01:12:48;10.23;;;7.63;;
21833;SDS011;11079;51.092;3.458;2023-06-22T01:15:37;12.10;;;7.90;;
21833;SDS011;11079;51.092;3.458;2023-06-22T01:18:08;12.15;;;8.38;;
21833;SDS011;11079;51.092;3.458;2023-06-22T01:20:35;11.27;;;7.40;;
21833;SDS011;11079;51.092;3.458;2023-06-22T01:23:05;11.13;;;8.07;;
21833;SDS011;11079;51.092;3.458;2023-06-22T01:28:46;10.40;;;7.90;;
21833;SDS011;11079;51.092;3.458;2023-06-22T01:31:15;12.82;;;7.45;;
21833;SDS011;11079;51.092;3.458;2023-06-22T01:33:43;11.15;;;8.05;;
21833;SDS011;11079;51.092;3.458;2023-06-22T01:36:13;11.68;;;6.90;;
21833;SDS011;11079;51.092;3.458;2023-06-22T01:38:41;13.85;;;7.85;;
21833;SDS011;11079;51.092;3.458;2023-06-22T01:41:08;12.27;;;8.48;;
21833;SDS011;11079;51.092;3.458;2023-06-22T01:43:34;16.50;;;7.82;;
21833;SDS011;11079;51.092;3.458;2023-06-22T01:46:01;16.50;;;9.23;;
21833;SDS011;11079;51.092;3.458;2023-06-22T01:48:27;12.43;;;8.82;;
21833;SDS011;11079;51.092;3.458;2023-06-22T01:50:54;17.92;;;9.75;;
21833;SDS011;11079;51.092;3.458;2023-06-22T01:53:21;17.30;;;10.40;;
21833;SDS011;11079;51.092;3.458;2023-06-22T01:55:47;15.93;;;9.50;;
21833;SDS011;11079;51.092;3.458;2023-06-22T01:58:13;16.70;;;10.18;;
21833;SDS011;11079;51.092;3.458;2023-06-22T02:00:40;14.73;;;9.68;;
21833;SDS011;11079;51.092;3.458;2023-06-22T02:03:10;18.52;;;10.88;;
21833;SDS011;11079;51.092;3.458;2023-06-22T02:05:46;16.77;;;10.23;;
21833;SDS011;11079;51.092;3.458;2023-06-22T02:08:20;18.13;;;11.00;;
21833;SDS011;11079;51.092;3.458;2023-06-22T02:10:49;19.65;;;10.57;;
21833;SDS011;11079;51.092;3.458;2023-06-22T02:13:17;16.45;;;10.02;;
21833;SDS011;11079;51.092;3.458;2023-06-22T02:15:43;15.85;;;9.70;;
21833;SDS011;11079;51.092;3.458;2023-06-22T02:18:10;16.95;;;9.85;;
21833;SDS011;11079;51.092;3.458;2023-06-22T02:20:36;13.85;;;8.95;;
21833;SDS011;11079;51.092;3.458;2023-06-22T02:23:02;14.93;;;9.38;;
21833;SDS011;11079;51.092;3.458;2023-06-22T02:25:28;16.52;;;9.90;;
21833;SDS011;11079;51.092;3.458;2023-06-22T02:27:53;15.98;;;9.80;;
21833;SDS011;11079;51.092;3.458;2023-06-22T02:30:19;17.80;;;10.57;;
21833;SDS011;11079;51.092;3.458;2023-06-22T02:32:45;16.00;;;9.93;;
21833;SDS011;11079;51.092;3.458;2023-06-22T02:35:10;16.25;;;9.20;;
21833;SDS011;11079;51.092;3.458;2023-06-22T02:37:36;15.38;;;9.20;;
21833;SDS011;11079;51.092;3.458;2023-06-22T02:40:07;14.25;;;8.63;;
21833;SDS011;11079;51.092;3.458;2023-06-22T02:42:34;12.30;;;8.98;;
21833;SDS011;11079;51.092;3.458;2023-06-22T02:45:00;12.55;;;8.90;;
21833;SDS011;11079;51.092;3.458;2023-06-22T02:47:26;16.50;;;8.70;;
21833;SDS011;11079;51.092;3.458;2023-06-22T02:49:52;14.70;;;9.55;;
21833;SDS011;11079;51.092;3.458;2023-06-22T02:52:18;14.15;;;9.25;;
21833;SDS011;11079;51.092;3.458;2023-06-22T02:54:43;16.13;;;9.38;;
21833;SDS011;11079;51.092;3.458;2023-06-22T02:57:11;13.43;;;8.25;;
21833;SDS011;11079;51.092;3.458;2023-06-22T02:59:39;13.43;;;8.20;;
21833;SDS011;11079;51.092;3.458;2023-06-22T03:02:06;12.02;;;9.30;;
21833;SDS011;11079;51.092;3.458;2023-06-22T03:04:33;14.57;;;8.77;;
21833;SDS011;11079;51.092;3.458;2023-06-22T03:06:59;16.33;;;9.60;;
21833;SDS011;11079;51.092;3.458;2023-06-22T03:09:26;13.45;;;8.75;;
21833;SDS011;11079;51.092;3.458;2023-06-22T03:11:53;13.30;;;8.20;;
21833;SDS011;11079;51.092;3.458;2023-06-22T03:14:21;13.20;;;8.52;;
21833;SDS011;11079;51.092;3.458;2023-06-22T03:16:46;12.48;;;8.57;;
21833;SDS011;11079;51.092;3.458;2023-06-22T03:19:12;13.07;;;8.40;;
21833;SDS011;11079;51.092;3.458;2023-06-22T03:21:39;11.27;;;8.57;;
21833;SDS011;11079;51.092;3.458;2023-06-22T03:24:05;14.98;;;8.98;;
21833;SDS011;11079;51.092;3.458;2023-06-22T03:26:31;12.93;;;8.63;;
21833;SDS011;11079;51.092;3.458;2023-06-22T03:28:57;13.38;;;7.95;;
21833;SDS011;11079;51.092;3.458;2023-06-22T03:31:23;13.38;;;9.13;;
21833;SDS011;11079;51.092;3.458;2023-06-22T03:33:49;14.65;;;9.40;;
21833;SDS011;11079;51.092;3.458;2023-06-22T03:36:16;13.80;;;9.98;;
21833;SDS011;11079;51.092;3.458;2023-06-22T03:38:45;15.40;;;9.75;;
21833;SDS011;11079;51.092;3.458;2023-06-22T03:41:12;16.27;;;10.13;;
21833;SDS011;11079;51.092;3.458;2023-06-22T03:43:39;13.95;;;9.05;;
21833;SDS011;11079;51.092;3.458;2023-06-22T03:46:37;13.82;;;9.43;;
21833;SDS011;11079;51.092;3.458;2023-06-22T03:49:03;13.07;;;8.68;;
21833;SDS011;11079;51.092;3.458;2023-06-22T03:51:29;14.52;;;8.57;;
21833;SDS011;11079;51.092;3.458;2023-06-22T03:53:55;15.23;;;9.73;;
21833;SDS011;11079;51.092;3.458;2023-06-22T03:56:21;15.88;;;9.90;;
21833;SDS011;11079;51.092;3.458;2023-06-22T03:58:46;15.90;;;10.50;;
21833;SDS011;11079;51.092;3.458;2023-06-22T04:01:12;12.65;;;9.25;;
21833;SDS011;11079;51.092;3.458;2023-06-22T04:03:38;13.35;;;9.32;;
21833;SDS011;11079;51.092;3.458;2023-06-22T04:06:04;13.73;;;8.30;;
21833;SDS011;11079;51.092;3.458;2023-06-22T04:08:29;15.82;;;8.85;;
21833;SDS011;11079;51.092;3.458;2023-06-22T04:10:55;14.90;;;8.95;;
21833;SDS011;11079;51.092;3.458;2023-06-22T04:13:21;11.77;;;9.02;;
21833;SDS011;11079;51.092;3.458;2023-06-22T04:15:47;12.77;;;7.88;;
21833;SDS011;11079;51.092;3.458;2023-06-22T04:18:12;12.35;;;8.25;;
21833;SDS011;11079;51.092;3.458;2023-06-22T04:20:38;14.98;;;8.77;;
21833;SDS011;11079;51.092;3.458;2023-06-22T04:23:04;12.45;;;7.30;;
21833;SDS011;11079;51.092;3.458;2023-06-22T04:25:30;15.07;;;9.52;;
21833;SDS011;11079;51.092;3.458;2023-06-22T04:27:55;13.20;;;8.70;;
21833;SDS011;11079;51.092;3.458;2023-06-22T04:30:21;13.75;;;8.30;;
21833;SDS011;11079;51.092;3.458;2023-06-22T04:32:47;13.15;;;8.80;;
21833;SDS011;11079;51.092;3.458;2023-06-22T04:35:22;12.93;;;8.43;;
21833;SDS011;11079;51.092;3.458;2023-06-22T04:37:51;13.10;;;8.25;;
21833;SDS011;11079;51.092;3.458;2023-06-22T04:40:19;9.82;;;8.10;;
21833;SDS011;11079;51.092;3.458;2023-06-22T04:42:48;11.40;;;7.93;;
21833;SDS011;11079;51.092;3.458;2023-06-22T04:45:19;13.50;;;8.40;;
21833;SDS011;11079;51.092;3.458;2023-06-22T04:47:45;12.40;;;8.15;;
21833;SDS011;11079;51.092;3.458;2023-06-22T04:50:14;12.48;;;8.20;;
21833;SDS011;11079;51.092;3.458;2023-06-22T04:52:40;14.60;;;9.32;;
21833;SDS011;11079;51.092;3.458;2023-06-22T04:55:07;16.63;;;7.70;;
21833;SDS011;11079;51.092;3.458;2023-06-22T04:57:34;13.00;;;8.10;;
21833;SDS011;11079;51.092;3.458;2023-06-22T04:59:59;13.80;;;8.00;;
21833;SDS011;11079;51.092;3.458;2023-06-22T05:02:38;12.05;;;7.22;;
21833;SDS011;11079;51.092;3.458;2023-06-22T05:05:04;12.30;;;7.93;;
21833;SDS011;11079;51.092;3.458;2023-06-22T05:07:35;11.23;;;7.68;;
21833;SDS011;11079;51.092;3.458;2023-06-22T05:10:02;11.45;;;7.28;;
21833;SDS011;11079;51.092;3.458;2023-06-22T05:12:29;12.68;;;7.07;;
21833;SDS011;11079;51.092;3.458;2023-06-22T05:14:56;11.43;;;7.28;;
21833;SDS011;11079;51.092;3.458;2023-06-22T05:17:22;8.50;;;7.10;;
21833;SDS011;11079;51.092;3.458;2023-06-22T05:19:47;13.48;;;6.85;;
21833;SDS011;11079;51.092;3.458;2023-06-22T05:22:14;9.80;;;7.20;;
21833;SDS011;11079;51.092;3.458;2023-06-22T05:24:40;11.80;;;7.57;;
21833;SDS011;11079;51.092;3.458;2023-06-22T05:27:07;12.45;;;8.38;;
21833;SDS011;11079;51.092;3.458;2023-06-22T05:29:32;16.00;;;9.23;;
21833;SDS011;11079;51.092;3.458;2023-06-22T05:31:58;17.13;;;9.43;;
21833;SDS011;11079;51.092;3.458;2023-06-22T05:34:23;13.63;;;9.50;;
21833;SDS011;11079;51.092;3.458;2023-06-22T05:36:49;17.17;;;10.27;;
21833;SDS011;11079;51.092;3.458;2023-06-22T05:39:15;19.38;;;10.75;;
21833;SDS011;11079;51.092;3.458;2023-06-22T05:41:41;15.70;;;10.07;;
21833;SDS011;11079;51.092;3.458;2023-06-22T05:44:08;15.07;;;10.40;;
21833;SDS011;11079;51.092;3.458;2023-06-22T05:46:34;16.88;;;10.73;;
21833;SDS011;11079;51.092;3.458;2023-06-22T05:48:59;13.82;;;9.25;;
21833;SDS011;11079;51.092;3.458;2023-06-22T05:51:25;15.05;;;9.75;;
21833;SDS011;11079;51.092;3.458;2023-06-22T05:53:50;16.88;;;9.85;;
21833;SDS011;11079;51.092;3.458;2023-06-22T05:56:16;14.15;;;10.00;;
21833;SDS011;11079;51.092;3.458;2023-06-22T05:58:42;15.00;;;10.43;;
21833;SDS011;11079;51.092;3.458;2023-06-22T06:01:08;15.55;;;10.80;;
21833;SDS011;11079;51.092;3.458;2023-06-22T06:03:33;16.60;;;11.48;;
21833;SDS011;11079;51.092;3.458;2023-06-22T06:05:59;14.27;;;10.38;;
21833;SDS011;11079;51.092;3.458;2023-06-22T06:08:27;15.48;;;11.77;;
21833;SDS011;11079;51.092;3.458;2023-06-22T06:10:53;14.65;;;11.93;;
21833;SDS011;11079;51.092;3.458;2023-06-22T06:13:20;18.05;;;12.52;;
21833;SDS011;11079;51.092;3.458;2023-06-22T06:15:45;15.73;;;12.60;;
21833;SDS011;11079;51.092;3.458;2023-06-22T06:18:11;18.33;;;13.02;;
21833;SDS011;11079;51.092;3.458;2023-06-22T06:20:37;16.25;;;11.90;;
21833;SDS011;11079;51.092;3.458;2023-06-22T06:23:02;15.77;;;12.63;;
21833;SDS011;11079;51.092;3.458;2023-06-22T06:25:28;16.52;;;12.65;;
21833;SDS011;11079;51.092;3.458;2023-06-22T06:27:53;17.45;;;11.95;;
21833;SDS011;11079;51.092;3.458;2023-06-22T06:30:19;20.95;;;12.43;;
21833;SDS011;11079;51.092;3.458;2023-06-22T06:32:45;20.05;;;12.45;;
21833;SDS011;11079;51.092;3.458;2023-06-22T06:35:12;18.55;;;12.13;;
21833;SDS011;11079;51.092;3.458;2023-06-22T06:37:40;18.58;;;12.50;;
21833;SDS011;11079;51.092;3.458;2023-06-22T06:40:08;17.48;;;12.35;;
21833;SDS011;11079;51.092;3.458;2023-06-22T06:42:35;16.67;;;12.48;;
21833;SDS011;11079;51.092;3.458;2023-06-22T06:45:11;21.95;;;13.70;;
21833;SDS011;11079;51.092;3.458;2023-06-22T06:47:38;21.38;;;14.07;;
21833;SDS011;11079;51.092;3.458;2023-06-22T06:50:05;20.33;;;14.07;;
21833;SDS011;11079;51.092;3.458;2023-06-22T06:52:31;20.98;;;15.05;;
21833;SDS011;11079;51.092;3.458;2023-06-22T06:54:56;21.58;;;14.40;;
21833;SDS011;11079;51.092;3.458;2023-06-22T06:57:22;21.02;;;14.75;;
21833;SDS011;11079;51.092;3.458;2023-06-22T06:59:48;20.10;;;15.70;;
21833;SDS011;11079;51.092;3.458;2023-06-22T07:02:14;18.40;;;13.77;;
21833;SDS011;11079;51.092;3.458;2023-06-22T07:04:41;23.13;;;15.35;;
21833;SDS011;11079;51.092;3.458;2023-06-22T07:07:06;20.83;;;15.27;;
21833;SDS011;11079;51.092;3.458;2023-06-22T07:09:32;19.50;;;14.60;;
21833;SDS011;11079;51.092;3.458;2023-06-22T07:11:58;23.58;;;15.45;;
21833;SDS011;11079;51.092;3.458;2023-06-22T07:14:24;20.23;;;15.88;;
21833;SDS011;11079;51.092;3.458;2023-06-22T07:16:50;21.33;;;16.15;;
21833;SDS011;11079;51.092;3.458;2023-06-22T07:19:15;21.40;;;16.00;;
21833;SDS011;11079;51.092;3.458;2023-06-22T07:21:41;20.23;;;15.18;;
21833;SDS011;11079;51.092;3.458;2023-06-22T07:24:07;20.85;;;15.10;;
21833;SDS011;11079;51.092;3.458;2023-06-22T07:26:32;23.85;;;15.07;;
21833;SDS011;11079;51.092;3.458;2023-06-22T07:28:58;23.55;;;17.23;;
21833;SDS011;11079;51.092;3.458;2023-06-22T07:31:24;19.70;;;16.13;;
21833;SDS011;11079;51.092;3.458;2023-06-22T07:33:50;20.88;;;14.75;;
21833;SDS011;11079;51.092;3.458;2023-06-22T07:36:17;25.80;;;17.05;;
21833;SDS011;11079;51.092;3.458;2023-06-22T07:38:43;21.92;;;16.13;;
21833;SDS011;11079;51.092;3.458;2023-06-22T07:41:08;23.90;;;17.33;;
21833;SDS011;11079;51.092;3.458;2023-06-22T07:43:34;22.80;;;16.85;;
21833;SDS011;11079;51.092;3.458;2023-06-22T07:46:02;20.52;;;16.38;;
21833;SDS011;11079;51.092;3.458;2023-06-22T07:48:28;22.85;;;16.63;;
21833;SDS011;11079;51.092;3.458;2023-06-22T07:50:54;19.48;;;15.35;;
21833;SDS011;11079;51.092;3.458;2023-06-22T07:53:20;22.35;;;16.38;;
21833;SDS011;11079;51.092;3.458;2023-06-22T07:55:46;23.02;;;17.13;;
21833;SDS011;11079;51.092;3.458;2023-06-22T07:58:12;23.38;;;17.15;;
21833;SDS011;11079;51.092;3.458;2023-06-22T08:00:38;19.95;;;16.48;;
21833;SDS011;11079;51.092;3.458;2023-06-22T08:03:04;23.38;;;17.17;;
21833;SDS011;11079;51.092;3.458;2023-06-22T08:05:30;20.17;;;16.77;;
21833;SDS011;11079;51.092;3.458;2023-06-22T08:07:56;22.23;;;17.00;;
21833;SDS011;11079;51.092;3.458;2023-06-22T08:10:22;20.70;;;17.00;;
21833;SDS011;11079;51.092;3.458;2023-06-22T08:12:47;23.73;;;17.80;;
21833;SDS011;11079;51.092;3.458;2023-06-22T08:15:13;20.40;;;16.65;;
21833;SDS011;11079;51.092;3.458;2023-06-22T08:17:39;21.52;;;18.33;;
21833;SDS011;11079;51.092;3.458;2023-06-22T08:20:05;25.15;;;18.48;;
21833;SDS011;11079;51.092;3.458;2023-06-22T08:22:35;22.70;;;17.60;;
21833;SDS011;11079;51.092;3.458;2023-06-22T08:25:01;21.38;;;16.88;;
21833;SDS011;11079;51.092;3.458;2023-06-22T08:27:29;22.25;;;16.58;;
21833;SDS011;11079;51.092;3.458;2023-06-22T08:29:57;20.38;;;17.33;;
21833;SDS011;11079;51.092;3.458;2023-06-22T08:32:24;18.40;;;15.25;;
21833;SDS011;11079;51.092;3.458;2023-06-22T08:34:51;22.05;;;16.55;;
21833;SDS011;11079;51.092;3.458;2023-06-22T08:37:21;20.98;;;16.63;;
21833;SDS011;11079;51.092;3.458;2023-06-22T08:39:49;20.15;;;16.85;;
21833;SDS011;11079;51.092;3.458;2023-06-22T08:42:15;23.13;;;15.80;;
21833;SDS011;11079;51.092;3.458;2023-06-22T08:44:41;19.23;;;15.55;;
21833;SDS011;11079;51.092;3.458;2023-06-22T08:47:07;20.00;;;16.88;;
21833;SDS011;11079;51.092;3.458;2023-06-22T08:49:32;21.95;;;17.60;;
21833;SDS011;11079;51.092;3.458;2023-06-22T08:51:58;21.90;;;16.35;;
21833;SDS011;11079;51.092;3.458;2023-06-22T08:54:24;20.23;;;17.10;;
21833;SDS011;11079;51.092;3.458;2023-06-22T08:56:49;23.27;;;16.83;;
21833;SDS011;11079;51.092;3.458;2023-06-22T08:59:15;22.00;;;16.40;;
21833;SDS011;11079;51.092;3.458;2023-06-22T09:01:40;20.95;;;16.30;;
21833;SDS011;11079;51.092;3.458;2023-06-22T09:04:10;22.65;;;15.70;;
21833;SDS011;11079;51.092;3.458;2023-06-22T09:06:36;18.92;;;16.05;;
21833;SDS011;11079;51.092;3.458;2023-06-22T09:09:06;21.00;;;15.35;;
21833;SDS011;11079;51.092;3.458;2023-06-22T09:11:31;27.80;;;15.65;;
21833;SDS011;11079;51.092;3.458;2023-06-22T09:13:57;19.23;;;15.45;;
21833;SDS011;11079;51.092;3.458;2023-06-22T09:16:23;19.35;;;14.43;;
21833;SDS011;11079;51.092;3.458;2023-06-22T09:18:48;22.30;;;15.40;;
21833;SDS011;11079;51.092;3.458;2023-06-22T09:21:14;19.00;;;13.98;;
21833;SDS011;11079;51.092;3.458;2023-06-22T09:23:40;18.52;;;13.90;;
21833;SDS011;11079;51.092;3.458;2023-06-22T09:26:05;16.23;;;13.43;;
21833;SDS011;11079;51.092;3.458;2023-06-22T09:28:31;17.25;;;13.98;;
21833;SDS011;11079;51.092;3.458;2023-06-22T09:30:58;17.95;;;13.43;;
21833;SDS011;11079;51.092;3.458;2023-06-22T09:33:25;17.70;;;13.95;;
21833;SDS011;11079;51.092;3.458;2023-06-22T09:35:51;16.83;;;13.55;;
21833;SDS011;11079;51.092;3.458;2023-06-22T09:38:17;17.17;;;13.75;;
21833;SDS011;11079;51.092;3.458;2023-06-22T09:40:42;17.48;;;14.23;;
21833;SDS011;11079;51.092;3.458;2023-06-22T09:43:08;20.77;;;14.70;;
21833;SDS011;11079;51.092;3.458;2023-06-22T09:45:34;15.88;;;13.73;;
21833;SDS011;11079;51.092;3.458;2023-06-22T09:47:59;19.30;;;13.98;;
21833;SDS011;11079;51.092;3.458;2023-06-22T09:50:26;16.42;;;13.80;;
21833;SDS011;11079;51.092;3.458;2023-06-22T09:52:52;16.83;;;13.80;;
21833;SDS011;11079;51.092;3.458;2023-06-22T09:55:20;17.10;;;13.80;;
21833;SDS011;11079;51.092;3.458;2023-06-22T09:57:47;20.77;;;15.02;;
21833;SDS011;11079;51.092;3.458;2023-06-22T10:00:14;20.38;;;13.68;;
21833;SDS011;11079;51.092;3.458;2023-06-22T10:02:41;16.75;;;13.90;;
21833;SDS011;11079;51.092;3.458;2023-06-22T10:05:07;18.60;;;14.82;;
21833;SDS011;11079;51.092;3.458;2023-06-22T10:07:33;16.33;;;13.73;;
21833;SDS011;11079;51.092;3.458;2023-06-22T10:09:59;17.42;;;14.05;;
21833;SDS011;11079;51.092;3.458;2023-06-22T10:12:27;17.23;;;13.30;;
21833;SDS011;11079;51.092;3.458;2023-06-22T10:14:52;15.85;;;12.30;;
21833;SDS011;11079;51.092;3.458;2023-06-22T10:17:18;16.52;;;12.38;;
21833;SDS011;11079;51.092;3.458;2023-06-22T10:19:47;17.10;;;12.63;;
21833;SDS011;11079;51.092;3.458;2023-06-22T10:22:22;18.20;;;12.38;;
21833;SDS011;11079;51.092;3.458;2023-06-22T10:24:48;15.80;;;12.25;;
21833;SDS011;11079;51.092;3.458;2023-06-22T10:27:13;14.50;;;11.70;;
21833;SDS011;11079;51.092;3.458;2023-06-22T10:29:39;15.35;;;11.98;;
21833;SDS011;11079;51.092;3.458;2023-06-22T10:32:05;17.27;;;12.50;;
21833;SDS011;11079;51.092;3.458;2023-06-22T10:34:31;15.48;;;11.93;;
21833;SDS011;11079;51.092;3.458;2023-06-22T10:36:56;16.20;;;12.38;;
21833;SDS011;11079;51.092;3.458;2023-06-22T10:39:22;15.88;;;11.10;;
21833;SDS011;11079;51.092;3.458;2023-06-22T10:41:48;16.38;;;12.65;;
21833;SDS011;11079;51.092;3.458;2023-06-22T10:44:13;15.48;;;12.10;;
21833;SDS011;11079;51.092;3.458;2023-06-22T10:46:39;14.18;;;11.77;;
21833;SDS011;11079;51.092;3.458;2023-06-22T10:49:05;14.95;;;11.88;;
21833;SDS011;11079;51.092;3.458;2023-06-22T10:51:30;14.27;;;11.90;;
21833;SDS011;11079;51.092;3.458;2023-06-22T10:53:57;14.45;;;11.77;;
21833;SDS011;11079;51.092;3.458;2023-06-22T10:56:23;15.30;;;11.05;;
21833;SDS011;11079;51.092;3.458;2023-06-22T10:58:49;15.93;;;11.93;;
21833;SDS011;11079;51.092;3.458;2023-06-22T11:01:14;15.60;;;11.50;;
21833;SDS011;11079;51.092;3.458;2023-06-22T11:03:40;13.48;;;9.70;;
21833;SDS011;11079;51.092;3.458;2023-06-22T11:06:06;12.70;;;9.55;;
21833;SDS011;11079;51.092;3.458;2023-06-22T11:08:31;13.82;;;9.27;;
21833;SDS011;11079;51.092;3.458;2023-06-22T11:10:57;15.50;;;9.93;;
21833;SDS011;11079;51.092;3.458;2023-06-22T11:13:22;15.60;;;9.15;;
21833;SDS011;11079;51.092;3.458;2023-06-22T11:15:48;12.13;;;9.35;;
21833;SDS011;11079;51.092;3.458;2023-06-22T11:18:14;14.60;;;10.45;;
21833;SDS011;11079;51.092;3.458;2023-06-22T11:20:39;12.73;;;9.20;;
21833;SDS011;11079;51.092;3.458;2023-06-22T11:23:05;13.60;;;9.60;;
21833;SDS011;11079;51.092;3.458;2023-06-22T11:25:31;12.98;;;9.85;;
21833;SDS011;11079;51.092;3.458;2023-06-22T11:27:59;14.55;;;9.48;;
21833;SDS011;11079;51.092;3.458;2023-06-22T11:30:28;15.98;;;10.30;;
21833;SDS011;11079;51.092;3.458;2023-06-22T11:32:54;11.50;;;9.40;;
21833;SDS011;11079;51.092;3.458;2023-06-22T11:35:21;11.88;;;10.05;;
21833;SDS011;11079;51.092;3.458;2023-06-22T11:37:46;12.63;;;9.43;;
21833;SDS011;11079;51.092;3.458;2023-06-22T11:40:12;12.70;;;8.90;;
21833;SDS011;11079;51.092;3.458;2023-06-22T11:42:38;12.85;;;9.20;;
21833;SDS011;11079;51.092;3.458;2023-06-22T11:45:04;16.13;;;9.55;;
21833;SDS011;11079;51.092;3.458;2023-06-22T11:47:34;13.32;;;10.15;;
21833;SDS011;11079;51.092;3.458;2023-06-22T11:50:00;16.58;;;9.40;;
21833;SDS011;11079;51.092;3.458;2023-06-22T11:52:25;14.55;;;10.20;;
21833;SDS011;11079;51.092;3.458;2023-06-22T11:54:52;14.02;;;9.98;;
21833;SDS011;11079;51.092;3.458;2023-06-22T11:57:18;12.70;;;8.95;;
21833;SDS011;11079;51.092;3.458;2023-06-22T11:59:43;14.70;;;9.73;;
21833;SDS011;11079;51.092;3.458;2023-06-22T12:02:09;14.38;;;10.27;;
21833;SDS011;11079;51.092;3.458;2023-06-22T12:04:34;14.75;;;9.18;;
21833;SDS011;11079;51.092;3.458;2023-06-22T12:07:00;12.45;;;9.15;;
21833;SDS011;11079;51.092;3.458;2023-06-22T12:09:26;14.18;;;10.18;;
21833;SDS011;11079;51.092;3.458;2023-06-22T12:11:51;13.88;;;9.38;;
21833;SDS011;11079;51.092;3.458;2023-06-22T12:14:17;12.88;;;9.20;;
21833;SDS011;11079;51.092;3.458;2023-06-22T12:16:42;14.40;;;9.85;;
21833;SDS011;11079;51.092;3.458;2023-06-22T12:19:09;15.38;;;9.57;;
21833;SDS011;11079;51.092;3.458;2023-06-22T12:21:36;16.20;;;9.85;;
21833;SDS011;11079;51.092;3.458;2023-06-22T12:24:03;11.18;;;8.40;;
21833;SDS011;11079;51.092;3.458;2023-06-22T12:26:28;13.82;;;8.35;;
21833;SDS011;11079;51.092;3.458;2023-06-22T12:28:54;10.45;;;8.00;;
21833;SDS011;11079;51.092;3.458;2023-06-22T12:31:19;10.02;;;7.70;;
21833;SDS011;11079;51.092;3.458;2023-06-22T12:33:45;12.75;;;8.65;;
21833;SDS011;11079;51.092;3.458;2023-06-22T12:36:10;12.23;;;8.52;;
21833;SDS011;11079;51.092;3.458;2023-06-22T12:38:36;11.10;;;7.70;;
21833;SDS011;11079;51.092;3.458;2023-06-22T12:41:02;16.20;;;8.80;;
21833;SDS011;11079;51.092;3.458;2023-06-22T12:43:28;10.05;;;7.90;;
21833;SDS011;11079;51.092;3.458;2023-06-22T12:45:54;12.40;;;8.48;;
21833;SDS011;11079;51.092;3.458;2023-06-22T12:48:20;12.30;;;8.05;;
21833;SDS011;11079;51.092;3.458;2023-06-22T12:50:46;15.10;;;8.85;;
21833;SDS011;11079;51.092;3.458;2023-06-22T12:53:13;11.90;;;9.05;;
21833;SDS011;11079;51.092;3.458;2023-06-22T12:55:38;15.40;;;8.65;;
21833;SDS011;11079;51.092;3.458;2023-06-22T12:58:04;12.15;;;8.63;;
21833;SDS011;11079;51.092;3.458;2023-06-22T13:00:29;15.10;;;8.13;;
21833;SDS011;11079;51.092;3.458;2023-06-22T13:02:55;18.63;;;11.82;;
21833;SDS011;11079;51.092;3.458;2023-06-22T13:05:21;17.00;;;13.50;;
21833;SDS011;11079;51.092;3.458;2023-06-22T13:07:46;22.25;;;14.98;;
21833;SDS011;11079;51.092;3.458;2023-06-22T13:10:12;23.98;;;17.38;;
21833;SDS011;11079;51.092;3.458;2023-06-22T13:12:37;26.00;;;19.23;;
21833;SDS011;11079;51.092;3.458;2023-06-22T13:15:03;29.88;;;20.92;;
21833;SDS011;11079;51.092;3.458;2023-06-22T13:17:31;30.10;;;21.17;;
21833;SDS011;11079;51.092;3.458;2023-06-22T13:19:56;29.00;;;22.10;;
21833;SDS011;11079;51.092;3.458;2023-06-22T13:24:54;34.08;;;23.75;;
21833;SDS011;11079;51.092;3.458;2023-06-22T13:27:20;32.58;;;23.70;;
21833;SDS011;11079;51.092;3.458;2023-06-22T13:29:45;33.15;;;24.63;;
21833;SDS011;11079;51.092;3.458;2023-06-22T13:32:11;34.55;;;26.38;;
21833;SDS011;11079;51.092;3.458;2023-06-22T13:34:36;35.38;;;25.65;;
21833;SDS011;11079;51.092;3.458;2023-06-22T13:37:02;33.97;;;25.15;;
21833;SDS011;11079;51.092;3.458;2023-06-22T13:39:28;31.52;;;23.48;;
21833;SDS011;11079;51.092;3.458;2023-06-22T13:41:53;33.08;;;23.50;;
21833;SDS011;11079;51.092;3.458;2023-06-22T13:44:19;30.63;;;23.75;;
21833;SDS011;11079;51.092;3.458;2023-06-22T13:46:46;30.27;;;23.02;;
21833;SDS011;11079;51.092;3.458;2023-06-22T13:49:12;32.58;;;23.23;;
21833;SDS011;11079;51.092;3.458;2023-06-22T13:51:37;34.10;;;23.02;;
21833;SDS011;11079;51.092;3.458;2023-06-22T13:54:03;27.73;;;21.20;;
21833;SDS011;11079;51.092;3.458;2023-06-22T13:56:28;29.75;;;21.30;;
21833;SDS011;11079;51.092;3.458;2023-06-22T13:58:55;27.30;;;20.25;;
21833;SDS011;11079;51.092;3.458;2023-06-22T14:01:20;29.27;;;21.70;;
21833;SDS011;11079;51.092;3.458;2023-06-22T14:03:47;24.40;;;19.40;;
21833;SDS011;11079;51.092;3.458;2023-06-22T14:06:13;26.63;;;19.45;;
21833;SDS011;11079;51.092;3.458;2023-06-22T14:08:39;24.60;;;19.15;;
21833;SDS011;11079;51.092;3.458;2023-06-22T14:11:04;26.05;;;18.42;;
21833;SDS011;11079;51.092;3.458;2023-06-22T14:13:30;21.90;;;17.40;;
21833;SDS011;11079;51.092;3.458;2023-06-22T14:15:56;24.25;;;18.30;;
21833;SDS011;11079;51.092;3.458;2023-06-22T14:18:21;23.65;;;19.08;;
21833;SDS011;11079;51.092;3.458;2023-06-22T14:20:49;25.23;;;19.25;;
21833;SDS011;11079;51.092;3.458;2023-06-22T14:23:15;23.23;;;18.08;;
21833;SDS011;11079;51.092;3.458;2023-06-22T14:25:40;24.58;;;19.65;;
21833;SDS011;11079;51.092;3.458;2023-06-22T14:28:06;28.45;;;21.60;;
21833;SDS011;11079;51.092;3.458;2023-06-22T14:30:32;30.27;;;22.10;;